Time;durP1;ratioP1;P1;durP2;ratioP2;P2;SDS_P1;SDS_P2;PMS_P1;PMS_P2;Temp;Humidity;BMP_temperature;BMP_pressure;BME280_temperature;BME280_humidity;BME280_pressure;Samples;Min_cycle;Max_cycle;Signal;HPM_P1;HPM_P2
2023/06/29 00:01:42;;;;;;;20.43;18.33;;;19.80;99.90;;;;;;4975821;28;20473;-75
2023/06/29 00:04:11;;;;;;;21.80;19.10;;;19.80;99.90;;;;;;4975469;28;20453;-75
2023/06/29 00:06:39;;;;;;;21.87;19.57;;;19.80;99.90;;;;;;4976698;28;20930;-74
2023/06/29 00:09:07;;;;;;;19.73;17.60;;;19.80;99.90;;;;;;4978075;28;20461;-75
2023/06/29 00:11:37;;;;;;;22.23;19.83;;;19.80;99.90;;;;;;4978159;28;20532;-75
2023/06/29 00:14:06;;;;;;;22.37;19.27;;;19.80;99.90;;;;;;4978635;28;20461;-75
2023/06/29 00:16:35;;;;;;;23.50;20.20;;;19.80;99.90;;;;;;4978597;28;20445;-75
2023/06/29 00:19:03;;;;;;;22.20;19.70;;;19.80;99.90;;;;;;4977803;28;20488;-75
2023/06/29 00:21:31;;;;;;;22.23;19.83;;;19.80;99.90;;;;;;4978800;28;20512;-75
2023/06/29 00:23:59;;;;;;;22.90;20.50;;;19.80;99.90;;;;;;4977440;28;20441;-75
2023/06/29 00:26:28;;;;;;;23.87;21.27;;;19.70;99.90;;;;;;4979170;28;20456;-75
2023/06/29 00:28:58;;;;;;;23.93;20.10;;;19.70;99.90;;;;;;4978642;28;20485;-75
2023/06/29 00:31:27;;;;;;;23.57;20.97;;;19.70;99.90;;;;;;4976823;28;20898;-75
2023/06/29 00:33:55;;;;;;;22.90;20.23;;;19.70;99.90;;;;;;4976284;28;20453;-76
2023/06/29 00:36:23;;;;;;;21.40;19.17;;;19.70;99.90;;;;;;4976710;28;20480;-75
2023/06/29 00:38:51;;;;;;;29.30;19.87;;;19.70;99.90;;;;;;4976787;28;20469;-75
2023/06/29 00:41:19;;;;;;;22.90;19.47;;;19.60;99.90;;;;;;4976720;28;20541;-75
2023/06/29 00:43:48;;;;;;;23.23;19.30;;;19.60;99.90;;;;;;4977226;28;20508;-75
2023/06/29 00:46:20;;;;;;;21.93;19.10;;;19.60;99.90;;;;;;4976660;28;20454;-75
2023/06/29 00:48:48;;;;;;;21.10;17.90;;;19.60;99.90;;;;;;4976689;28;20477;-75
2023/06/29 00:51:17;;;;;;;23.30;21.00;;;19.60;99.90;;;;;;4979053;28;20537;-75
2023/06/29 00:53:45;;;;;;;19.20;17.20;;;19.60;99.90;;;;;;4978256;28;20445;-75
2023/06/29 00:56:14;;;;;;;22.27;18.47;;;19.60;99.90;;;;;;4975948;28;20461;-75
2023/06/29 00:58:42;;;;;;;22.43;18.53;;;19.50;99.90;;;;;;4976051;28;20477;-75
2023/06/29 01:01:10;;;;;;;21.87;18.67;;;19.50;99.90;;;;;;4977507;28;20470;-75
2023/06/29 01:03:40;;;;;;;21.17;18.10;;;19.50;99.90;;;;;;4977296;28;20457;-75
2023/06/29 01:06:13;;;;;;;21.37;19.20;;;19.50;99.90;;;;;;4976910;28;20446;-75
2023/06/29 01:08:46;;;;;;;20.20;18.03;;;19.40;99.90;;;;;;4976238;28;20552;-75
2023/06/29 01:11:15;;;;;;;21.37;19.17;;;19.40;99.90;;;;;;4977089;28;20775;-75
2023/06/29 01:13:45;;;;;;;20.67;18.63;;;19.40;99.90;;;;;;4976702;28;20490;-74
2023/06/29 01:16:14;;;;;;;20.33;18.33;;;19.40;99.90;;;;;;4976149;28;20858;-75
2023/06/29 01:18:46;;;;;;;18.50;16.57;;;19.40;99.90;;;;;;4977025;28;20474;-75
2023/06/29 01:21:18;;;;;;;20.50;18.50;;;19.40;99.90;;;;;;4974766;28;20505;-75
2023/06/29 01:23:47;;;;;;;20.40;18.30;;;19.40;99.90;;;;;;4978032;28;20492;-74
2023/06/29 01:26:17;;;;;;;21.23;19.03;;;19.30;99.90;;;;;;4976827;28;20500;-74
2023/06/29 01:28:46;;;;;;;19.60;17.60;;;19.30;99.90;;;;;;4975703;28;20556;-75
2023/06/29 01:31:14;;;;;;;19.73;17.73;;;19.30;99.90;;;;;;4975717;28;20442;-75
2023/06/29 01:33:43;;;;;;;20.37;18.27;;;19.30;99.90;;;;;;4976039;28;20496;-75
2023/06/29 01:36:17;;;;;;;21.43;18.17;;;19.30;99.90;;;;;;4975546;28;20989;-75
2023/06/29 01:38:50;;;;;;;19.93;17.23;;;19.30;99.90;;;;;;4976156;28;20481;-75
2023/06/29 01:41:21;;;;;;;20.73;18.70;;;19.30;99.90;;;;;;4975730;28;20528;-75
2023/06/29 01:43:50;;;;;;;20.40;18.43;;;19.30;99.90;;;;;;4976226;28;20477;-75
2023/06/29 01:46:20;;;;;;;17.87;16.13;;;19.30;99.90;;;;;;4976425;28;20477;-75
2023/06/29 01:48:49;;;;;;;22.57;18.80;;;19.30;99.90;;;;;;4976130;28;20902;-75
2023/06/29 01:51:18;;;;;;;21.43;19.13;;;19.30;99.90;;;;;;4977341;28;20511;-75
2023/06/29 01:53:46;;;;;;;19.30;17.50;;;19.30;99.90;;;;;;4975742;28;20489;-75
2023/06/29 01:56:15;;;;;;;23.73;17.80;;;19.30;99.90;;;;;;4976204;28;20442;-75
2023/06/29 01:58:45;;;;;;;21.90;19.80;;;19.30;99.90;;;;;;4976180;28;20509;-75
2023/06/29 02:01:14;;;;;;;20.47;18.43;;;19.30;99.90;;;;;;4976156;28;20457;-75
2023/06/29 02:03:42;;;;;;;22.60;18.80;;;19.20;99.90;;;;;;4978506;28;20855;-75
2023/06/29 02:06:10;;;;;;;19.93;17.90;;;19.20;99.90;;;;;;4977945;28;20499;-75
2023/06/29 02:08:39;;;;;;;20.50;18.20;;;19.20;99.90;;;;;;4976272;28;20469;-75
2023/06/29 02:11:08;;;;;;;19.97;17.97;;;19.20;99.90;;;;;;4975421;28;20450;-75
2023/06/29 02:13:36;;;;;;;23.80;19.37;;;19.20;99.90;;;;;;4975705;28;21025;-75
2023/06/29 02:16:06;;;;;;;20.60;18.00;;;19.20;99.90;;;;;;4975254;28;20475;-75
2023/06/29 02:18:34;;;;;;;20.60;17.73;;;19.20;99.90;;;;;;4976457;28;20457;-75
2023/06/29 02:21:02;;;;;;;21.50;19.30;;;19.20;99.90;;;;;;4975590;28;20488;-75
2023/06/29 02:23:30;;;;;;;18.90;17.00;;;19.20;99.90;;;;;;4975565;28;20916;-75
2023/06/29 02:25:58;;;;;;;21.20;18.93;;;19.20;99.90;;;;;;4976397;28;20497;-75
2023/06/29 02:28:27;;;;;;;19.53;17.67;;;19.20;99.90;;;;;;4977146;28;20828;-74
2023/06/29 02:30:55;;;;;;;21.07;18.80;;;19.20;99.90;;;;;;4977907;28;20449;-74
2023/06/29 02:33:25;;;;;;;20.97;18.87;;;19.20;99.90;;;;;;4976172;28;20449;-75
2023/06/29 02:35:53;;;;;;;19.63;17.53;;;19.20;99.90;;;;;;4976032;28;20493;-75
2023/06/29 02:38:21;;;;;;;24.20;18.27;;;19.20;99.90;;;;;;4975532;28;20484;-75
2023/06/29 02:40:50;;;;;;;21.43;19.20;;;19.20;99.90;;;;;;4974236;28;20460;-75
2023/06/29 02:43:18;;;;;;;21.60;19.30;;;19.20;99.90;;;;;;4974061;28;20469;-75
2023/06/29 02:45:46;;;;;;;18.70;16.80;;;19.20;99.90;;;;;;4974005;28;20450;-75
2023/06/29 02:48:14;;;;;;;18.93;16.93;;;19.20;99.90;;;;;;4974314;28;20859;-75
2023/06/29 02:50:44;;;;;;;20.53;17.27;;;19.20;99.90;;;;;;4974402;28;20457;-75
2023/06/29 02:53:16;;;;;;;19.70;17.67;;;19.20;99.90;;;;;;4974154;28;20940;-75
2023/06/29 02:55:44;;;;;;;18.77;16.80;;;19.20;99.90;;;;;;4974195;28;20445;-75
2023/06/29 02:58:13;;;;;;;19.43;17.30;;;19.20;99.90;;;;;;4974087;28;21025;-75
2023/06/29 03:00:41;;;;;;;20.50;17.70;;;19.20;99.90;;;;;;4974174;28;20478;-75
2023/06/29 03:03:09;;;;;;;19.93;18.10;;;19.20;99.90;;;;;;4973937;28;20469;-75
2023/06/29 03:05:38;;;;;;;18.70;16.70;;;19.20;99.90;;;;;;4973894;28;20454;-75
2023/06/29 03:08:07;;;;;;;19.60;17.70;;;19.20;99.90;;;;;;4973929;28;20553;-75
2023/06/29 03:10:35;;;;;;;19.57;17.43;;;19.20;99.90;;;;;;4974165;28;20445;-75
2023/06/29 03:13:03;;;;;;;19.30;17.30;;;19.20;99.90;;;;;;4973785;28;20461;-75
2023/06/29 03:15:32;;;;;;;19.73;17.70;;;19.20;99.90;;;;;;4973839;28;20488;-75
2023/06/29 03:18:00;;;;;;;21.07;18.83;;;19.20;99.90;;;;;;4973983;28;20473;-75
2023/06/29 03:20:28;;;;;;;23.90;21.40;;;19.10;99.90;;;;;;4973713;28;20533;-75
2023/06/29 03:22:56;;;;;;;19.37;17.37;;;19.20;99.90;;;;;;4974837;28;20487;-75
2023/06/29 03:25:26;;;;;;;21.93;19.17;;;19.20;99.90;;;;;;4973332;28;20900;-75
2023/06/29 03:27:54;;;;;;;25.90;23.13;;;19.20;99.90;;;;;;4974609;28;20484;-75
2023/06/29 03:30:22;;;;;;;20.10;16.97;;;19.10;99.90;;;;;;4973874;28;20445;-75
2023/06/29 03:32:50;;;;;;;20.47;16.73;;;19.20;99.90;;;;;;4975125;28;20446;-75
2023/06/29 03:35:18;;;;;;;19.93;17.87;;;19.20;99.90;;;;;;4973501;28;20450;-75
2023/06/29 03:37:46;;;;;;;18.77;16.80;;;19.10;99.90;;;;;;4973560;28;20493;-75
2023/06/29 03:40:16;;;;;;;17.20;15.47;;;19.20;99.90;;;;;;4973560;28;20424;-75
2023/06/29 03:42:45;;;;;;;19.20;17.30;;;19.10;99.90;;;;;;4973491;28;20515;-75
2023/06/29 03:45:14;;;;;;;20.13;18.17;;;19.20;99.90;;;;;;4977282;28;20992;-75
2023/06/29 03:47:42;;;;;;;21.80;18.40;;;19.20;99.90;;;;;;4978519;28;20480;-75
2023/06/29 03:50:11;;;;;;;18.63;16.63;;;19.20;99.90;;;;;;4978750;28;20862;-75
2023/06/29 03:52:39;;;;;;;20.30;18.10;;;19.10;99.90;;;;;;4978928;28;20863;-75
2023/06/29 03:55:09;;;;;;;20.80;18.30;;;19.20;99.90;;;;;;4977324;28;20413;-75
2023/06/29 03:57:37;;;;;;;20.93;18.70;;;19.20;99.90;;;;;;4978464;28;20473;-75
2023/06/29 04:00:08;;;;;;;19.33;17.50;;;19.10;99.90;;;;;;4978388;28;20504;-75
2023/06/29 04:02:40;;;;;;;19.37;17.37;;;19.20;99.90;;;;;;4978447;28;20869;-75
2023/06/29 04:05:08;;;;;;;21.37;18.40;;;19.20;99.90;;;;;;4978227;28;20520;-75
2023/06/29 04:07:36;;;;;;;20.93;18.83;;;19.20;99.90;;;;;;4976859;28;20454;-75
2023/06/29 04:10:05;;;;;;;20.33;18.23;;;19.20;99.90;;;;;;4976995;28;20456;-75
2023/06/29 04:12:33;;;;;;;23.27;18.40;;;19.20;99.90;;;;;;4977926;28;20457;-75
2023/06/29 04:15:01;;;;;;;19.50;17.50;;;19.20;99.90;;;;;;4976685;28;20450;-75
2023/06/29 04:17:31;;;;;;;24.83;17.53;;;19.20;99.90;;;;;;4976958;28;20553;-75
2023/06/29 04:19:59;;;;;;;20.00;17.90;;;19.20;99.90;;;;;;4976871;28;20450;-75
2023/06/29 04:22:27;;;;;;;21.53;19.30;;;19.20;99.90;;;;;;4978065;28;20480;-75
2023/06/29 04:24:55;;;;;;;25.43;19.47;;;19.20;99.90;;;;;;4976746;28;20540;-75
2023/06/29 04:27:24;;;;;;;21.80;18.57;;;19.20;99.90;;;;;;4978073;28;20935;-75
2023/06/29 04:29:52;;;;;;;23.77;17.20;;;19.20;99.90;;;;;;4976533;28;20461;-75
2023/06/29 04:32:20;;;;;;;19.57;17.57;;;19.20;99.90;;;;;;4977712;28;20448;-75
2023/06/29 04:34:49;;;;;;;22.13;19.40;;;19.20;99.90;;;;;;4977316;28;20540;-75
2023/06/29 04:37:18;;;;;;;21.90;18.60;;;19.20;99.90;;;;;;4976619;28;20978;-75
2023/06/29 04:39:46;;;;;;;21.57;19.33;;;19.20;99.90;;;;;;4976941;28;20461;-75
2023/06/29 04:42:16;;;;;;;19.90;17.90;;;19.20;99.90;;;;;;4977944;28;20477;-75
2023/06/29 04:44:45;;;;;;;20.27;17.90;;;19.20;99.90;;;;;;4976582;28;20503;-75
2023/06/29 04:47:13;;;;;;;25.43;19.80;;;19.20;99.90;;;;;;4977676;28;20445;-75
2023/06/29 04:49:44;;;;;;;20.10;18.10;;;19.20;99.90;;;;;;4977783;28;20540;-75
2023/06/29 04:52:14;;;;;;;22.03;18.73;;;19.20;99.90;;;;;;4976638;28;20985;-75
2023/06/29 04:54:42;;;;;;;22.50;20.10;;;19.30;99.90;;;;;;4976074;28;20437;-75
2023/06/29 04:57:12;;;;;;;20.40;18.17;;;19.20;99.90;;;;;;4977546;28;20811;-75
2023/06/29 04:59:40;;;;;;;19.57;17.23;;;19.20;99.90;;;;;;4976427;28;20501;-75
2023/06/29 05:02:08;;;;;;;23.10;18.37;;;19.20;99.90;;;;;;4976183;28;20870;-75
2023/06/29 05:04:36;;;;;;;22.30;19.50;;;19.20;99.90;;;;;;4976190;28;20568;-75
2023/06/29 05:07:04;;;;;;;20.47;18.07;;;19.30;99.90;;;;;;4976309;28;20501;-75
2023/06/29 05:09:34;;;;;;;25.70;19.13;;;19.30;99.90;;;;;;4979385;28;20454;-75
2023/06/29 05:12:02;;;;;;;22.97;20.10;;;19.30;99.90;;;;;;4979103;28;20450;-75
2023/06/29 05:14:30;;;;;;;22.10;19.00;;;19.30;99.90;;;;;;4977878;28;20521;-75
2023/06/29 05:16:59;;;;;;;24.47;18.37;;;19.30;99.90;;;;;;4977387;28;20496;-75
2023/06/29 05:19:27;;;;;;;21.90;17.73;;;19.30;99.90;;;;;;4977743;28;20997;-75
2023/06/29 05:21:55;;;;;;;21.77;19.23;;;19.30;99.90;;;;;;4977412;28;20868;-75
2023/06/29 05:24:24;;;;;;;21.83;18.80;;;19.30;99.90;;;;;;4977054;28;20466;-75
2023/06/29 05:26:53;;;;;;;22.37;16.20;;;19.30;99.90;;;;;;4977533;28;20532;-75
2023/06/29 05:29:21;;;;;;;19.00;16.97;;;19.30;99.90;;;;;;4975807;28;20469;-75
2023/06/29 05:31:49;;;;;;;20.50;17.47;;;19.30;99.90;;;;;;4976215;28;20449;-75
2023/06/29 05:34:17;;;;;;;19.73;17.27;;;19.40;99.90;;;;;;4977205;28;20797;-75
2023/06/29 05:36:46;;;;;;;20.30;18.20;;;19.40;99.90;;;;;;4975832;28;20453;-75
2023/06/29 05:39:14;;;;;;;23.93;18.90;;;19.40;99.90;;;;;;4976557;28;20553;-75
2023/06/29 05:41:42;;;;;;;20.63;17.47;;;19.40;99.90;;;;;;4976694;28;20442;-75
2023/06/29 05:44:12;;;;;;;22.60;17.67;;;19.40;99.90;;;;;;4975059;28;20844;-75
2023/06/29 05:46:40;;;;;;;19.77;17.67;;;19.40;99.90;;;;;;4974875;28;21091;-75
2023/06/29 05:49:08;;;;;;;20.37;17.23;;;19.50;99.90;;;;;;4976300;28;20443;-75
2023/06/29 05:51:37;;;;;;;23.20;20.40;;;19.50;99.90;;;;;;4976150;28;20438;-75
2023/06/29 05:54:05;;;;;;;21.50;18.60;;;19.50;99.90;;;;;;4976342;28;20795;-75
2023/06/29 05:56:33;;;;;;;22.83;19.50;;;19.50;99.90;;;;;;4976289;28;20434;-75
2023/06/29 05:59:02;;;;;;;25.77;20.20;;;19.60;99.90;;;;;;4976058;28;20838;-75
2023/06/29 06:01:31;;;;;;;22.03;19.70;;;19.60;99.90;;;;;;4974530;28;20442;-75
2023/06/29 06:03:59;;;;;;;24.73;20.07;;;19.60;99.90;;;;;;4975795;28;20554;-75
2023/06/29 06:06:30;;;;;;;22.50;20.10;;;19.70;99.90;;;;;;4975157;28;20438;-76
2023/06/29 06:08:58;;;;;;;23.30;20.20;;;19.70;99.90;;;;;;4974685;28;20496;-76
2023/06/29 06:11:26;;;;;;;22.70;17.90;;;19.80;99.90;;;;;;4974937;28;20469;-75
2023/06/29 06:13:55;;;;;;;19.80;16.80;;;19.80;99.90;;;;;;4975774;28;20434;-75
2023/06/29 06:16:23;;;;;;;21.50;18.73;;;19.80;99.90;;;;;;4974486;28;20454;-76
2023/06/29 06:18:53;;;;;;;23.80;19.37;;;19.80;99.90;;;;;;4975198;28;20465;-76
2023/06/29 06:21:23;;;;;;;21.40;19.00;;;19.90;99.90;;;;;;4975709;28;20438;-76
2023/06/29 06:23:52;;;;;;;22.70;18.23;;;19.90;99.90;;;;;;4975555;28;20462;-75
2023/06/29 06:26:20;;;;;;;20.03;17.87;;;19.90;99.90;;;;;;4974493;28;20453;-75
2023/06/29 06:28:50;;;;;;;25.00;18.40;;;19.90;99.90;;;;;;4974274;28;20481;-75
2023/06/29 06:31:18;;;;;;;20.33;18.23;;;20.00;99.90;;;;;;4974531;28;20472;-75
2023/06/29 06:34:02;;;;;;;23.90;17.77;;;20.00;99.90;;;;;;4974487;28;20529;-75
2023/06/29 06:36:31;;;;;;;25.20;20.00;;;20.00;99.90;;;;;;4974564;28;20544;-75
2023/06/29 06:38:59;;;;;;;25.40;18.60;;;20.00;99.90;;;;;;4973978;28;20999;-75
2023/06/29 06:41:28;;;;;;;21.30;17.83;;;20.00;99.90;;;;;;4974077;28;20453;-75
2023/06/29 06:43:57;;;;;;;22.33;17.10;;;20.00;99.90;;;;;;4975204;28;20501;-75
2023/06/29 06:46:25;;;;;;;23.30;18.17;;;20.00;99.90;;;;;;4973912;28;20504;-75
2023/06/29 06:48:53;;;;;;;23.60;18.77;;;20.10;99.90;;;;;;4973876;28;20473;-75
2023/06/29 06:51:23;;;;;;;22.27;16.07;;;20.10;99.90;;;;;;4975472;28;20595;-75
2023/06/29 06:53:51;;;;;;;29.67;25.33;;;20.10;99.90;;;;;;4973639;28;20822;-75
2023/06/29 06:56:19;;;;;;;21.63;19.33;;;20.10;99.90;;;;;;4974840;28;20438;-75
2023/06/29 06:58:47;;;;;;;19.47;17.47;;;20.10;99.90;;;;;;4975047;28;20462;-75
2023/06/29 07:01:16;;;;;;;20.83;17.87;;;20.10;99.90;;;;;;4974117;28;20463;-75
2023/06/29 07:03:44;;;;;;;26.60;18.47;;;20.10;99.90;;;;;;4973906;28;20473;-74
2023/06/29 07:06:12;;;;;;;24.70;19.17;;;20.20;99.90;;;;;;4975463;28;20975;-74
2023/06/29 07:08:42;;;;;;;22.93;19.80;;;20.20;99.90;;;;;;4973822;28;20461;-74
2023/06/29 07:11:10;;;;;;;24.30;19.97;;;20.20;99.90;;;;;;4975188;28;20452;-75
2023/06/29 07:13:38;;;;;;;21.60;18.90;;;20.20;99.90;;;;;;4975419;28;20814;-75
2023/06/29 07:16:06;;;;;;;23.30;19.83;;;20.30;99.90;;;;;;4974127;28;20477;-74
2023/06/29 07:18:36;;;;;;;22.10;19.77;;;20.20;99.90;;;;;;4975949;28;20552;-74
2023/06/29 07:21:04;;;;;;;23.50;18.93;;;20.30;99.90;;;;;;4978207;28;21016;-74
2023/06/29 07:23:35;;;;;;;21.73;18.97;;;20.30;99.90;;;;;;4978189;28;20465;-75
2023/06/29 07:26:07;;;;;;;21.83;18.60;;;20.40;99.90;;;;;;4977946;28;20446;-75
2023/06/29 07:28:35;;;;;;;23.60;19.93;;;20.40;99.90;;;;;;4979375;28;20463;-74
2023/06/29 07:31:04;;;;;;;21.50;18.87;;;20.50;99.90;;;;;;4977659;28;20477;-74
2023/06/29 07:33:32;;;;;;;26.00;21.57;;;20.50;99.90;;;;;;4978864;28;20442;-74
2023/06/29 07:36:04;;;;;;;25.30;22.60;;;20.50;99.90;;;;;;4978091;28;20798;-74
2023/06/29 07:38:33;;;;;;;22.00;18.90;;;20.60;99.90;;;;;;4977654;28;21102;-74
2023/06/29 07:41:03;;;;;;;20.50;18.20;;;20.60;99.90;;;;;;4979267;28;20524;-74
2023/06/29 07:43:32;;;;;;;19.43;17.33;;;20.70;99.90;;;;;;4977329;28;20470;-74
2023/06/29 07:46:01;;;;;;;21.63;19.37;;;20.70;99.90;;;;;;4978943;28;20461;-74
2023/06/29 07:48:30;;;;;;;22.87;19.50;;;20.80;99.90;;;;;;4977515;28;20875;-74
2023/06/29 07:50:58;;;;;;;24.73;20.30;;;20.90;99.90;;;;;;4977532;28;20869;-74
2023/06/29 07:53:26;;;;;;;23.33;17.23;;;20.90;99.90;;;;;;4978447;28;20456;-74
2023/06/29 07:55:54;;;;;;;21.30;19.00;;;21.00;99.90;;;;;;4978145;28;20455;-75
2023/06/29 07:58:22;;;;;;;21.40;19.17;;;21.10;99.90;;;;;;4978413;28;20909;-74
2023/06/29 08:00:55;;;;;;;23.30;18.70;;;21.20;99.90;;;;;;4978560;28;20524;-75
2023/06/29 08:03:23;;;;;;;22.77;18.47;;;21.20;99.90;;;;;;4978300;28;20434;-75
2023/06/29 08:05:52;;;;;;;21.23;19.03;;;21.30;99.90;;;;;;4978139;28;20497;-75
2023/06/29 08:08:23;;;;;;;21.27;18.50;;;21.30;99.90;;;;;;4976912;28;20564;-74
2023/06/29 08:10:51;;;;;;;27.00;19.23;;;21.40;99.90;;;;;;4978137;28;20471;-75
2023/06/29 08:13:19;;;;;;;20.27;18.27;;;21.40;99.90;;;;;;4976831;28;20536;-74
2023/06/29 08:15:47;;;;;;;30.00;18.73;;;21.40;99.90;;;;;;4978415;28;20448;-74
2023/06/29 08:18:17;;;;;;;23.57;18.10;;;21.50;99.90;;;;;;4977779;28;20473;-74
2023/06/29 08:20:46;;;;;;;19.17;17.07;;;21.50;99.90;;;;;;4978976;28;20437;-74
2023/06/29 08:23:15;;;;;;;31.70;18.17;;;21.60;99.90;;;;;;4978190;28;20441;-74
2023/06/29 08:25:43;;;;;;;21.50;17.43;;;21.60;99.90;;;;;;4976764;28;20588;-74
2023/06/29 08:28:12;;;;;;;21.60;17.67;;;21.60;99.90;;;;;;4978329;28;20476;-74
2023/06/29 08:30:40;;;;;;;22.90;17.30;;;21.70;99.90;;;;;;4976630;28;20969;-75
2023/06/29 08:33:08;;;;;;;21.13;17.33;;;21.70;99.90;;;;;;4976936;28;20561;-74
2023/06/29 08:35:38;;;;;;;18.97;16.67;;;21.70;99.90;;;;;;4977914;28;20511;-74
2023/06/29 08:38:06;;;;;;;22.43;16.97;;;21.70;99.90;;;;;;4977904;28;20469;-74
2023/06/29 08:40:36;;;;;;;20.63;17.00;;;21.70;99.90;;;;;;4977779;28;20525;-75
2023/06/29 08:43:04;;;;;;;18.17;16.10;;;21.70;99.90;;;;;;4978402;28;20520;-74
2023/06/29 08:45:32;;;;;;;20.00;16.63;;;21.80;99.90;;;;;;4977785;28;20505;-75
2023/06/29 08:48:02;;;;;;;24.27;17.67;;;21.80;99.90;;;;;;4977418;28;20955;-74
2023/06/29 08:50:34;;;;;;;21.57;15.77;;;21.80;99.90;;;;;;4976296;28;20453;-74
2023/06/29 08:53:04;;;;;;;23.00;17.80;;;21.80;99.90;;;;;;4977712;28;20454;-74
2023/06/29 08:55:32;;;;;;;20.43;16.17;;;21.80;99.90;;;;;;4976016;28;20457;-74
2023/06/29 08:58:01;;;;;;;21.37;17.07;;;21.80;99.90;;;;;;4976068;28;20820;-75
2023/06/29 09:00:29;;;;;;;24.70;17.63;;;21.80;99.90;;;;;;4977578;28;20516;-74
2023/06/29 09:02:58;;;;;;;20.40;17.27;;;21.80;99.90;;;;;;4975875;28;20500;-75
2023/06/29 09:05:27;;;;;;;23.07;18.20;;;21.80;99.90;;;;;;4977064;28;20470;-74
2023/06/29 09:07:55;;;;;;;21.30;17.13;;;21.80;99.90;;;;;;4977188;28;20461;-74
2023/06/29 09:10:25;;;;;;;19.67;15.63;;;21.90;99.90;;;;;;4977422;28;20457;-74
2023/06/29 09:12:54;;;;;;;21.70;17.07;;;21.90;99.90;;;;;;4975835;28;20496;-74
2023/06/29 09:15:25;;;;;;;19.60;16.57;;;21.90;99.90;;;;;;4976911;28;20437;-75
2023/06/29 09:17:55;;;;;;;19.03;16.47;;;21.90;99.90;;;;;;4977276;28;20425;-75
2023/06/29 09:20:25;;;;;;;20.23;17.37;;;22.00;99.90;;;;;;4977201;28;20422;-75
2023/06/29 09:22:53;;;;;;;19.77;17.70;;;22.00;99.90;;;;;;4976533;28;20955;-75
2023/06/29 09:25:25;;;;;;;18.77;16.83;;;22.10;99.90;;;;;;4977645;28;20476;-75
2023/06/29 09:28:04;;;;;;;19.10;16.97;;;22.10;99.90;;;;;;4978139;28;20512;-75
2023/06/29 09:30:38;;;;;;;20.37;17.10;;;22.20;99.90;;;;;;4977442;28;20431;-75
2023/06/29 09:33:09;;;;;;;18.43;16.43;;;22.30;99.90;;;;;;4977765;28;20516;-75
2023/06/29 09:35:40;;;;;;;24.23;16.80;;;22.40;99.90;;;;;;4978033;28;20449;-75
2023/06/29 09:38:08;;;;;;;20.27;17.70;;;22.40;99.90;;;;;;4977761;28;20473;-75
2023/06/29 09:40:47;;;;;;;18.20;16.23;;;22.40;99.90;;;;;;4977025;28;20938;-75
2023/06/29 09:43:18;;;;;;;19.03;15.10;;;22.50;99.90;;;;;;4977327;28;20502;-75
2023/06/29 09:45:46;;;;;;;19.57;17.20;;;22.60;99.90;;;;;;4976533;28;20461;-75
2023/06/29 09:48:15;;;;;;;19.60;16.10;;;22.60;99.90;;;;;;4977733;28;20504;-75
2023/06/29 09:50:50;;;;;;;19.90;17.20;;;22.60;99.90;;;;;;4976809;28;20517;-76
2023/06/29 09:53:29;;;;;;;20.37;16.47;;;22.70;99.90;;;;;;4976011;28;20528;-75
2023/06/29 09:55:59;;;;;;;19.30;16.23;;;22.70;99.90;;;;;;4976187;28;20434;-75
2023/06/29 09:58:29;;;;;;;24.73;18.50;;;22.70;99.90;;;;;;4977417;28;20508;-75
2023/06/29 10:00:59;;;;;;;20.27;15.23;;;22.70;99.90;;;;;;4976928;28;20444;-75
2023/06/29 10:03:31;;;;;;;19.83;17.43;;;22.80;99.90;;;;;;4977865;28;20418;-75
2023/06/29 10:06:04;;;;;;;19.40;16.70;;;22.80;99.90;;;;;;4975914;28;21034;-75
2023/06/29 10:08:35;;;;;;;21.70;16.20;;;22.80;99.90;;;;;;4977538;28;20462;-74
2023/06/29 10:11:05;;;;;;;20.30;15.10;;;22.90;99.90;;;;;;4975671;28;20445;-73
2023/06/29 10:13:40;;;;;;;21.60;16.57;;;22.90;99.90;;;;;;4975992;28;20454;-75
2023/06/29 10:16:11;;;;;;;23.70;15.90;;;22.90;99.90;;;;;;4978177;28;20504;-75
2023/06/29 10:18:42;;;;;;;20.13;16.23;;;22.90;99.90;;;;;;4977010;28;20511;-75
2023/06/29 10:21:11;;;;;;;18.43;15.77;;;22.90;99.90;;;;;;4977208;28;20871;-75
2023/06/29 10:23:41;;;;;;;16.27;14.57;;;22.90;99.90;;;;;;4976571;28;20545;-75
2023/06/29 10:26:11;;;;;;;22.50;15.97;;;22.90;99.90;;;;;;4976755;28;20493;-75
2023/06/29 10:28:42;;;;;;;19.90;15.67;;;22.90;99.90;;;;;;4976572;28;20461;-75
2023/06/29 10:31:11;;;;;;;20.00;14.50;;;22.90;99.90;;;;;;4975948;28;20485;-75
2023/06/29 10:33:46;;;;;;;17.37;14.10;;;22.90;99.90;;;;;;4976858;28;20437;-75
2023/06/29 10:36:17;;;;;;;20.17;14.73;;;23.00;99.90;;;;;;4976585;28;20429;-75
2023/06/29 10:38:45;;;;;;;24.13;16.43;;;23.00;99.90;;;;;;4976784;28;20461;-75
2023/06/29 10:41:27;;;;;;;21.50;16.50;;;23.00;99.90;;;;;;4976544;28;20441;-75
2023/06/29 10:43:57;;;;;;;16.67;14.63;;;23.00;99.90;;;;;;4976286;28;20434;-76
2023/06/29 10:46:42;;;;;;;20.33;15.70;;;23.00;99.90;;;;;;4973933;28;20890;-75
2023/06/29 10:49:22;;;;;;;20.00;14.80;;;23.00;99.90;;;;;;4974964;28;20464;-75
2023/06/29 10:51:51;;;;;;;16.07;14.10;;;23.10;99.90;;;;;;4973686;28;20480;-76
2023/06/29 10:54:22;;;;;;;20.30;15.30;;;23.10;99.90;;;;;;4973774;28;20517;-75
2023/06/29 10:57:01;;;;;;;22.30;16.77;;;23.10;99.90;;;;;;4975327;28;20422;-75
2023/06/29 10:59:31;;;;;;;22.10;17.20;;;23.20;99.90;;;;;;4975093;28;20485;-75
2023/06/29 11:02:00;;;;;;;22.07;18.00;;;23.30;99.90;;;;;;4974938;28;20480;-75
2023/06/29 11:04:28;;;;;;;21.20;16.00;;;23.40;99.90;;;;;;4973710;28;20452;-75
2023/06/29 11:06:57;;;;;;;19.70;15.23;;;23.40;99.90;;;;;;4974691;28;20473;-75
2023/06/29 11:09:25;;;;;;;22.30;18.33;;;23.40;99.90;;;;;;4974984;28;20464;-75
2023/06/29 11:11:53;;;;;;;19.27;17.13;;;23.40;99.90;;;;;;4974850;28;20454;-75
2023/06/29 11:14:21;;;;;;;22.17;18.40;;;23.50;99.90;;;;;;4974984;28;20553;-75
2023/06/29 11:16:54;;;;;;;22.77;18.40;;;23.50;99.90;;;;;;4974721;28;20434;-75
2023/06/29 11:19:27;;;;;;;20.30;17.77;;;23.40;99.90;;;;;;4973521;28;20830;-75
2023/06/29 11:21:55;;;;;;;24.47;18.27;;;23.40;99.90;;;;;;4973652;28;20549;-75
2023/06/29 11:24:23;;;;;;;25.10;17.00;;;23.40;99.90;;;;;;4975280;28;20442;-76
2023/06/29 11:26:51;;;;;;;21.17;17.33;;;23.40;99.90;;;;;;4973348;28;20478;-75
2023/06/29 11:29:21;;;;;;;20.23;16.57;;;23.40;99.90;;;;;;4973322;28;20529;-75
2023/06/29 11:31:49;;;;;;;21.23;16.00;;;23.40;99.90;;;;;;4973227;28;20939;-75
2023/06/29 11:34:18;;;;;;;21.37;16.57;;;23.30;99.90;;;;;;4973351;28;20497;-75
2023/06/29 11:36:47;;;;;;;21.50;15.83;;;23.30;99.90;;;;;;4974918;28;20473;-75
2023/06/29 11:39:35;;;;;;;20.57;18.17;;;23.30;99.90;;;;;;4974491;28;20457;-75
2023/06/29 11:42:08;;;;;;;21.53;16.80;;;23.30;99.90;;;;;;4974709;28;21054;-75
2023/06/29 11:44:37;;;;;;;20.77;17.43;;;23.30;99.90;;;;;;4974553;28;20493;-75
2023/06/29 11:47:06;;;;;;;22.40;17.30;;;23.30;99.90;;;;;;4973091;28;20480;-75
2023/06/29 11:49:40;;;;;;;20.73;18.00;;;23.30;99.90;;;;;;4974313;28;20466;-75
2023/06/29 11:52:09;;;;;;;20.70;16.80;;;23.30;99.90;;;;;;4974525;28;20437;-75
2023/06/29 11:54:38;;;;;;;19.27;17.27;;;23.30;99.90;;;;;;4973185;28;20449;-75
2023/06/29 11:57:07;;;;;;;19.93;17.83;;;23.30;99.90;;;;;;4974314;28;20437;-75
2023/06/29 11:59:39;;;;;;;21.03;17.10;;;23.30;99.90;;;;;;4973053;28;20866;-75
2023/06/29 12:02:08;;;;;;;21.30;17.80;;;23.40;99.90;;;;;;4974358;28;20454;-75
2023/06/29 12:04:36;;;;;;;23.27;17.90;;;23.40;99.90;;;;;;4975407;28;20508;-75
2023/06/29 12:07:07;;;;;;;20.80;17.87;;;23.40;99.90;;;;;;4977759;28;20501;-75
2023/06/29 12:09:38;;;;;;;26.13;17.60;;;23.40;99.90;;;;;;4976710;28;20556;-75
2023/06/29 12:12:07;;;;;;;20.57;17.80;;;23.40;99.90;;;;;;4978183;28;20551;-75
2023/06/29 12:14:35;;;;;;;20.70;17.33;;;23.50;99.90;;;;;;4976430;28;20450;-75
2023/06/29 12:17:04;;;;;;;29.83;18.03;;;23.50;99.90;;;;;;4976700;28;20449;-75
2023/06/29 12:19:36;;;;;;;25.30;18.40;;;23.60;99.90;;;;;;4977613;28;20465;-75
2023/06/29 12:22:19;;;;;;;20.57;16.87;;;23.60;99.90;;;;;;4977892;28;20426;-75
2023/06/29 12:24:50;;;;;;;24.97;19.90;;;23.70;99.90;;;;;;4976574;28;20473;-75
2023/06/29 12:27:20;;;;;;;26.80;18.03;;;23.70;99.90;;;;;;4977732;28;20899;-75
2023/06/29 12:29:48;;;;;;;22.50;18.17;;;23.80;99.90;;;;;;4977842;28;20453;-75
2023/06/29 12:32:16;;;;;;;23.10;18.67;;;23.80;99.90;;;;;;4976574;28;20462;-75
2023/06/29 12:34:44;;;;;;;23.50;19.40;;;23.80;99.90;;;;;;4976218;28;20441;-75
2023/06/29 12:37:12;;;;;;;21.90;17.93;;;23.80;99.90;;;;;;4977639;28;20425;-75
2023/06/29 12:39:42;;;;;;;20.30;17.60;;;23.80;99.90;;;;;;4975934;28;20473;-75